sensor_id;sensor_type;location;lat;lon;timestamp;P1;durP1;ratioP1;P2;durP2;ratioP2
41139;SDS011;26881;48.784;9.192;2022-11-20T00:00:04;10.13;;;8.80;;
41139;SDS011;26881;48.784;9.192;2022-11-20T00:05:26;12.93;;;9.00;;
41139;SDS011;26881;48.784;9.192;2022-11-20T00:10:47;11.67;;;9.03;;
41139;SDS011;26881;48.784;9.192;2022-11-20T00:16:10;15.63;;;9.17;;
41139;SDS011;26881;48.784;9.192;2022-11-20T00:21:33;13.30;;;10.17;;
41139;SDS011;26881;48.784;9.192;2022-11-20T00:26:54;14.80;;;10.53;;
41139;SDS011;26881;48.784;9.192;2022-11-20T00:32:16;15.98;;;10.70;;
41139;SDS011;26881;48.784;9.192;2022-11-20T00:37:38;13.50;;;9.40;;
41139;SDS011;26881;48.784;9.192;2022-11-20T00:43:00;13.73;;;10.47;;
41139;SDS011;26881;48.784;9.192;2022-11-20T00:48:21;13.60;;;10.10;;
41139;SDS011;26881;48.784;9.192;2022-11-20T00:53:43;12.90;;;8.88;;
41139;SDS011;26881;48.784;9.192;2022-11-20T00:59:05;7.40;;;5.70;;
41139;SDS011;26881;48.784;9.192;2022-11-20T01:04:27;4.87;;;4.03;;
41139;SDS011;26881;48.784;9.192;2022-11-20T01:09:49;5.32;;;3.90;;
41139;SDS011;26881;48.784;9.192;2022-11-20T01:15:11;4.60;;;4.00;;
41139;SDS011;26881;48.784;9.192;2022-11-20T01:20:35;6.23;;;4.63;;
41139;SDS011;26881;48.784;9.192;2022-11-20T01:25:59;5.60;;;4.13;;
41139;SDS011;26881;48.784;9.192;2022-11-20T01:31:23;4.10;;;3.67;;
41139;SDS011;26881;48.784;9.192;2022-11-20T01:36:50;6.53;;;3.80;;
41139;SDS011;26881;48.784;9.192;2022-11-20T01:42:12;5.68;;;3.13;;
41139;SDS011;26881;48.784;9.192;2022-11-20T01:47:52;8.30;;;3.27;;
41139;SDS011;26881;48.784;9.192;2022-11-20T01:53:15;4.93;;;2.83;;
41139;SDS011;26881;48.784;9.192;2022-11-20T01:58:42;5.17;;;2.60;;
41139;SDS011;26881;48.784;9.192;2022-11-20T02:04:08;4.95;;;2.75;;
41139;SDS011;26881;48.784;9.192;2022-11-20T02:09:31;3.90;;;2.83;;
41139;SDS011;26881;48.784;9.192;2022-11-20T02:14:53;4.13;;;2.77;;
41139;SDS011;26881;48.784;9.192;2022-11-20T02:20:15;4.97;;;2.65;;
41139;SDS011;26881;48.784;9.192;2022-11-20T02:25:37;4.03;;;2.70;;
41139;SDS011;26881;48.784;9.192;2022-11-20T02:31:00;3.47;;;2.80;;
41139;SDS011;26881;48.784;9.192;2022-11-20T02:36:22;4.65;;;3.58;;
41139;SDS011;26881;48.784;9.192;2022-11-20T02:41:47;5.63;;;3.73;;
41139;SDS011;26881;48.784;9.192;2022-11-20T02:47:09;7.50;;;3.53;;
41139;SDS011;26881;48.784;9.192;2022-11-20T02:52:31;8.07;;;3.30;;
41139;SDS011;26881;48.784;9.192;2022-11-20T02:57:53;3.20;;;2.90;;
41139;SDS011;26881;48.784;9.192;2022-11-20T03:03:14;4.57;;;2.57;;
41139;SDS011;26881;48.784;9.192;2022-11-20T03:08:36;4.57;;;2.40;;
41139;SDS011;26881;48.784;9.192;2022-11-20T03:14:01;2.85;;;2.50;;
41139;SDS011;26881;48.784;9.192;2022-11-20T03:19:23;3.72;;;2.70;;
41139;SDS011;26881;48.784;9.192;2022-11-20T03:24:45;3.72;;;2.60;;
41139;SDS011;26881;48.784;9.192;2022-11-20T03:30:07;3.33;;;2.53;;
41139;SDS011;26881;48.784;9.192;2022-11-20T03:35:29;3.47;;;2.60;;
41139;SDS011;26881;48.784;9.192;2022-11-20T03:40:51;6.53;;;3.00;;
41139;SDS011;26881;48.784;9.192;2022-11-20T03:46:19;6.55;;;2.92;;
41139;SDS011;26881;48.784;9.192;2022-11-20T03:51:41;7.13;;;3.30;;
41139;SDS011;26881;48.784;9.192;2022-11-20T03:57:03;11.17;;;2.97;;
41139;SDS011;26881;48.784;9.192;2022-11-20T04:02:25;3.38;;;3.08;;
41139;SDS011;26881;48.784;9.192;2022-11-20T04:07:47;5.53;;;2.97;;
41139;SDS011;26881;48.784;9.192;2022-11-20T04:13:08;6.67;;;3.27;;
41139;SDS011;26881;48.784;9.192;2022-11-20T04:18:30;5.17;;;3.30;;
41139;SDS011;26881;48.784;9.192;2022-11-20T04:23:52;4.50;;;3.40;;
41139;SDS011;26881;48.784;9.192;2022-11-20T04:29:15;4.07;;;3.47;;
41139;SDS011;26881;48.784;9.192;2022-11-20T04:34:36;3.53;;;2.70;;
41139;SDS011;26881;48.784;9.192;2022-11-20T04:39:58;3.17;;;2.90;;
41139;SDS011;26881;48.784;9.192;2022-11-20T04:45:20;4.55;;;3.08;;
41139;SDS011;26881;48.784;9.192;2022-11-20T04:50:42;5.63;;;3.40;;
41139;SDS011;26881;48.784;9.192;2022-11-20T04:56:07;5.37;;;3.40;;
41139;SDS011;26881;48.784;9.192;2022-11-20T05:01:31;5.60;;;3.47;;
41139;SDS011;26881;48.784;9.192;2022-11-20T05:06:54;4.75;;;3.30;;
41139;SDS011;26881;48.784;9.192;2022-11-20T05:12:15;3.53;;;3.23;;
41139;SDS011;26881;48.784;9.192;2022-11-20T05:17:37;3.70;;;3.10;;
41139;SDS011;26881;48.784;9.192;2022-11-20T05:22:59;4.07;;;2.70;;
41139;SDS011;26881;48.784;9.192;2022-11-20T05:28:20;3.63;;;3.00;;
41139;SDS011;26881;48.784;9.192;2022-11-20T05:33:43;3.03;;;2.83;;
41139;SDS011;26881;48.784;9.192;2022-11-20T05:39:06;4.67;;;2.67;;
41139;SDS011;26881;48.784;9.192;2022-11-20T05:44:27;4.10;;;2.78;;
41139;SDS011;26881;48.784;9.192;2022-11-20T05:49:49;3.87;;;2.77;;
41139;SDS011;26881;48.784;9.192;2022-11-20T05:55:11;4.30;;;2.78;;
41139;SDS011;26881;48.784;9.192;2022-11-20T06:00:32;4.17;;;2.73;;
41139;SDS011;26881;48.784;9.192;2022-11-20T06:05:54;3.83;;;2.67;;
41139;SDS011;26881;48.784;9.192;2022-11-20T06:11:16;3.13;;;2.50;;
41139;SDS011;26881;48.784;9.192;2022-11-20T06:16:38;3.47;;;2.40;;
41139;SDS011;26881;48.784;9.192;2022-11-20T06:22:00;9.13;;;2.47;;
41139;SDS011;26881;48.784;9.192;2022-11-20T06:27:21;3.80;;;2.50;;
41139;SDS011;26881;48.784;9.192;2022-11-20T06:32:43;3.70;;;2.60;;
41139;SDS011;26881;48.784;9.192;2022-11-20T06:38:05;2.40;;;2.20;;
41139;SDS011;26881;48.784;9.192;2022-11-20T06:43:28;3.13;;;2.30;;
41139;SDS011;26881;48.784;9.192;2022-11-20T06:48:50;5.57;;;2.50;;
41139;SDS011;26881;48.784;9.192;2022-11-20T06:54:12;3.53;;;2.00;;
41139;SDS011;26881;48.784;9.192;2022-11-20T06:59:34;2.57;;;2.13;;
41139;SDS011;26881;48.784;9.192;2022-11-20T07:04:55;2.77;;;2.03;;
41139;SDS011;26881;48.784;9.192;2022-11-20T07:10:17;6.47;;;2.00;;
41139;SDS011;26881;48.784;9.192;2022-11-20T07:15:39;3.73;;;2.00;;
41139;SDS011;26881;48.784;9.192;2022-11-20T07:21:01;3.20;;;2.00;;
41139;SDS011;26881;48.784;9.192;2022-11-20T07:26:24;2.88;;;2.33;;
41139;SDS011;26881;48.784;9.192;2022-11-20T07:31:46;6.20;;;2.20;;
41139;SDS011;26881;48.784;9.192;2022-11-20T07:37:07;3.53;;;1.93;;
41139;SDS011;26881;48.784;9.192;2022-11-20T07:42:31;3.97;;;2.30;;
41139;SDS011;26881;48.784;9.192;2022-11-20T07:47:52;2.30;;;2.10;;
41139;SDS011;26881;48.784;9.192;2022-11-20T07:53:14;4.13;;;1.63;;
41139;SDS011;26881;48.784;9.192;2022-11-20T07:58:42;1.93;;;1.80;;
41139;SDS011;26881;48.784;9.192;2022-11-20T08:04:03;3.20;;;1.90;;
41139;SDS011;26881;48.784;9.192;2022-11-20T08:09:25;5.13;;;1.50;;
41139;SDS011;26881;48.784;9.192;2022-11-20T08:14:47;4.60;;;2.10;;
41139;SDS011;26881;48.784;9.192;2022-11-20T08:20:09;2.05;;;1.70;;
41139;SDS011;26881;48.784;9.192;2022-11-20T08:25:31;3.17;;;1.45;;
41139;SDS011;26881;48.784;9.192;2022-11-20T08:31:01;2.03;;;1.63;;
41139;SDS011;26881;48.784;9.192;2022-11-20T08:36:24;3.22;;;1.98;;
41139;SDS011;26881;48.784;9.192;2022-11-20T08:41:46;3.33;;;1.50;;
41139;SDS011;26881;48.784;9.192;2022-11-20T08:47:08;2.70;;;1.40;;
41139;SDS011;26881;48.784;9.192;2022-11-20T08:52:29;2.45;;;1.40;;
41139;SDS011;26881;48.784;9.192;2022-11-20T08:57:54;1.45;;;1.35;;
41139;SDS011;26881;48.784;9.192;2022-11-20T09:03:16;3.28;;;1.08;;
41139;SDS011;26881;48.784;9.192;2022-11-20T09:08:38;1.48;;;1.30;;
41139;SDS011;26881;48.784;9.192;2022-11-20T09:14:00;1.65;;;1.13;;
41139;SDS011;26881;48.784;9.192;2022-11-20T09:19:24;2.78;;;1.35;;
41139;SDS011;26881;48.784;9.192;2022-11-20T09:24:56;2.05;;;1.20;;
41139;SDS011;26881;48.784;9.192;2022-11-20T09:30:18;1.58;;;1.20;;
41139;SDS011;26881;48.784;9.192;2022-11-20T09:35:39;1.55;;;1.13;;
41139;SDS011;26881;48.784;9.192;2022-11-20T09:41:06;1.00;;;0.90;;
41139;SDS011;26881;48.784;9.192;2022-11-20T09:46:47;0.80;;;0.80;;
41139;SDS011;26881;48.784;9.192;2022-11-20T09:52:30;0.73;;;0.73;;
41139;SDS011;26881;48.784;9.192;2022-11-20T09:58:05;0.80;;;0.80;;
41139;SDS011;26881;48.784;9.192;2022-11-20T10:09:35;0.68;;;0.60;;
41139;SDS011;26881;48.784;9.192;2022-11-20T10:21:18;0.65;;;0.65;;
41139;SDS011;26881;48.784;9.192;2022-11-20T10:26:28;1.73;;;0.90;;
41139;SDS011;26881;48.784;9.192;2022-11-20T10:32:02;0.75;;;0.70;;
41139;SDS011;26881;48.784;9.192;2022-11-20T10:37:29;3.42;;;1.00;;
41139;SDS011;26881;48.784;9.192;2022-11-20T10:43:08;2.83;;;1.02;;
41139;SDS011;26881;48.784;9.192;2022-11-20T10:48:34;1.10;;;1.00;;
41139;SDS011;26881;48.784;9.192;2022-11-20T10:54:00;1.77;;;1.00;;
41139;SDS011;26881;48.784;9.192;2022-11-20T10:59:38;1.75;;;1.15;;
41139;SDS011;26881;48.784;9.192;2022-11-20T11:11:17;1.70;;;1.27;;
41139;SDS011;26881;48.784;9.192;2022-11-20T11:16:57;1.48;;;1.38;;
41139;SDS011;26881;48.784;9.192;2022-11-20T11:22:19;3.10;;;1.30;;
41139;SDS011;26881;48.784;9.192;2022-11-20T11:27:48;2.20;;;1.70;;
41139;SDS011;26881;48.784;9.192;2022-11-20T11:33:12;3.75;;;2.10;;
41139;SDS011;26881;48.784;9.192;2022-11-20T11:38:41;3.80;;;1.73;;
41139;SDS011;26881;48.784;9.192;2022-11-20T11:44:15;1.73;;;1.35;;
41139;SDS011;26881;48.784;9.192;2022-11-20T11:50:02;2.25;;;1.45;;
41139;SDS011;26881;48.784;9.192;2022-11-20T11:55:45;3.15;;;1.50;;
41139;SDS011;26881;48.784;9.192;2022-11-20T12:01:30;1.42;;;1.23;;
41139;SDS011;26881;48.784;9.192;2022-11-20T12:07:00;5.28;;;1.35;;
41139;SDS011;26881;48.784;9.192;2022-11-20T12:12:48;4.00;;;1.83;;
41139;SDS011;26881;48.784;9.192;2022-11-20T12:18:17;2.90;;;1.50;;
41139;SDS011;26881;48.784;9.192;2022-11-20T12:23:44;5.90;;;1.57;;
41139;SDS011;26881;48.784;9.192;2022-11-20T12:29:10;3.63;;;1.30;;
41139;SDS011;26881;48.784;9.192;2022-11-20T12:51:54;4.63;;;1.00;;
41139;SDS011;26881;48.784;9.192;2022-11-20T13:08:34;2.30;;;0.90;;
41139;SDS011;26881;48.784;9.192;2022-11-20T13:14:03;2.28;;;0.90;;
41139;SDS011;26881;48.784;9.192;2022-11-20T13:19:32;2.80;;;1.00;;
41139;SDS011;26881;48.784;9.192;2022-11-20T13:24:55;1.05;;;0.65;;
41139;SDS011;26881;48.784;9.192;2022-11-20T13:30:17;1.38;;;0.80;;
41139;SDS011;26881;48.784;9.192;2022-11-20T13:35:42;3.22;;;1.08;;
41139;SDS011;26881;48.784;9.192;2022-11-20T13:41:04;1.40;;;1.02;;
41139;SDS011;26881;48.784;9.192;2022-11-20T13:46:46;1.95;;;0.85;;
41139;SDS011;26881;48.784;9.192;2022-11-20T13:52:34;2.00;;;1.00;;
41139;SDS011;26881;48.784;9.192;2022-11-20T14:03:24;5.72;;;1.20;;
41139;SDS011;26881;48.784;9.192;2022-11-20T14:09:13;2.58;;;0.90;;
41139;SDS011;26881;48.784;9.192;2022-11-20T14:14:53;2.65;;;1.05;;
41139;SDS011;26881;48.784;9.192;2022-11-20T14:20:15;2.97;;;0.90;;
41139;SDS011;26881;48.784;9.192;2022-11-20T14:25:43;2.17;;;1.10;;
41139;SDS011;26881;48.784;9.192;2022-11-20T14:31:22;5.70;;;1.20;;
41139;SDS011;26881;48.784;9.192;2022-11-20T14:36:46;3.57;;;1.50;;
41139;SDS011;26881;48.784;9.192;2022-11-20T14:42:18;1.92;;;1.20;;
41139;SDS011;26881;48.784;9.192;2022-11-20T14:47:43;3.10;;;1.83;;
41139;SDS011;26881;48.784;9.192;2022-11-20T14:53:12;2.67;;;1.60;;
41139;SDS011;26881;48.784;9.192;2022-11-20T14:58:54;6.25;;;1.63;;
41139;SDS011;26881;48.784;9.192;2022-11-20T15:04:17;4.67;;;2.00;;
41139;SDS011;26881;48.784;9.192;2022-11-20T15:09:39;3.22;;;2.20;;
41139;SDS011;26881;48.784;9.192;2022-11-20T15:15:01;4.07;;;1.80;;
41139;SDS011;26881;48.784;9.192;2022-11-20T15:20:26;4.22;;;1.35;;
41139;SDS011;26881;48.784;9.192;2022-11-20T15:25:51;2.25;;;1.40;;
41139;SDS011;26881;48.784;9.192;2022-11-20T15:31:14;3.30;;;1.47;;
41139;SDS011;26881;48.784;9.192;2022-11-20T15:36:37;2.58;;;1.60;;
41139;SDS011;26881;48.784;9.192;2022-11-20T15:41:59;2.60;;;1.67;;
41139;SDS011;26881;48.784;9.192;2022-11-20T15:47:26;3.92;;;1.85;;
41139;SDS011;26881;48.784;9.192;2022-11-20T15:52:51;8.35;;;1.88;;
41139;SDS011;26881;48.784;9.192;2022-11-20T15:58:13;3.17;;;1.70;;
41139;SDS011;26881;48.784;9.192;2022-11-20T16:03:34;7.20;;;3.50;;
41139;SDS011;26881;48.784;9.192;2022-11-20T16:08:56;2.37;;;1.87;;
41139;SDS011;26881;48.784;9.192;2022-11-20T16:14:18;2.50;;;1.60;;
41139;SDS011;26881;48.784;9.192;2022-11-20T16:19:58;3.00;;;1.50;;
41139;SDS011;26881;48.784;9.192;2022-11-20T16:25:20;5.10;;;1.55;;
41139;SDS011;26881;48.784;9.192;2022-11-20T16:30:42;4.25;;;1.67;;
41139;SDS011;26881;48.784;9.192;2022-11-20T16:36:10;3.92;;;2.38;;
41139;SDS011;26881;48.784;9.192;2022-11-20T16:41:34;4.10;;;2.60;;
41139;SDS011;26881;48.784;9.192;2022-11-20T16:46:55;4.60;;;2.63;;
41139;SDS011;26881;48.784;9.192;2022-11-20T16:52:17;4.50;;;2.50;;
41139;SDS011;26881;48.784;9.192;2022-11-20T16:57:39;3.80;;;2.13;;
41139;SDS011;26881;48.784;9.192;2022-11-20T17:03:03;6.13;;;2.50;;
41139;SDS011;26881;48.784;9.192;2022-11-20T17:08:27;4.03;;;2.05;;
41139;SDS011;26881;48.784;9.192;2022-11-20T17:13:51;8.23;;;2.55;;
41139;SDS011;26881;48.784;9.192;2022-11-20T17:19:13;5.55;;;2.53;;
41139;SDS011;26881;48.784;9.192;2022-11-20T17:24:35;3.83;;;2.30;;
41139;SDS011;26881;48.784;9.192;2022-11-20T17:29:57;2.70;;;2.10;;
41139;SDS011;26881;48.784;9.192;2022-11-20T17:35:19;3.53;;;2.20;;
41139;SDS011;26881;48.784;9.192;2022-11-20T17:40:41;3.65;;;2.20;;
41139;SDS011;26881;48.784;9.192;2022-11-20T17:46:06;3.63;;;2.08;;
41139;SDS011;26881;48.784;9.192;2022-11-20T17:51:30;3.07;;;2.13;;
41139;SDS011;26881;48.784;9.192;2022-11-20T17:56:55;5.07;;;2.75;;
41139;SDS011;26881;48.784;9.192;2022-11-20T18:02:35;6.95;;;2.72;;
41139;SDS011;26881;48.784;9.192;2022-11-20T18:07:57;6.07;;;2.47;;
41139;SDS011;26881;48.784;9.192;2022-11-20T18:13:18;3.40;;;2.13;;
41139;SDS011;26881;48.784;9.192;2022-11-20T18:18:40;4.70;;;2.15;;
41139;SDS011;26881;48.784;9.192;2022-11-20T18:24:02;4.13;;;2.17;;
41139;SDS011;26881;48.784;9.192;2022-11-20T18:29:24;2.95;;;1.80;;
41139;SDS011;26881;48.784;9.192;2022-11-20T18:34:47;2.47;;;1.83;;
41139;SDS011;26881;48.784;9.192;2022-11-20T18:40:09;3.77;;;2.30;;
41139;SDS011;26881;48.784;9.192;2022-11-20T18:45:31;3.40;;;2.40;;
41139;SDS011;26881;48.784;9.192;2022-11-20T18:50:53;4.20;;;2.07;;
41139;SDS011;26881;48.784;9.192;2022-11-20T18:56:15;3.53;;;1.60;;
41139;SDS011;26881;48.784;9.192;2022-11-20T19:01:37;2.83;;;2.00;;
41139;SDS011;26881;48.784;9.192;2022-11-20T19:06:59;3.10;;;1.63;;
41139;SDS011;26881;48.784;9.192;2022-11-20T19:12:21;3.53;;;2.03;;
41139;SDS011;26881;48.784;9.192;2022-11-20T19:17:43;3.30;;;2.00;;
41139;SDS011;26881;48.784;9.192;2022-11-20T19:23:05;3.67;;;1.67;;
41139;SDS011;26881;48.784;9.192;2022-11-20T19:28:29;2.65;;;1.20;;
41139;SDS011;26881;48.784;9.192;2022-11-20T19:33:52;3.13;;;1.17;;
41139;SDS011;26881;48.784;9.192;2022-11-20T19:39:15;2.10;;;1.10;;
41139;SDS011;26881;48.784;9.192;2022-11-20T19:44:37;1.10;;;1.00;;
41139;SDS011;26881;48.784;9.192;2022-11-20T19:49:59;0.70;;;0.70;;
41139;SDS011;26881;48.784;9.192;2022-11-20T19:55:20;0.63;;;0.63;;
41139;SDS011;26881;48.784;9.192;2022-11-20T20:00:42;0.73;;;0.70;;
41139;SDS011;26881;48.784;9.192;2022-11-20T20:06:08;1.70;;;0.70;;
41139;SDS011;26881;48.784;9.192;2022-11-20T20:11:35;4.07;;;0.63;;
41139;SDS011;26881;48.784;9.192;2022-11-20T20:16:57;0.70;;;0.70;;
41139;SDS011;26881;48.784;9.192;2022-11-20T20:22:18;0.80;;;0.75;;
41139;SDS011;26881;48.784;9.192;2022-11-20T20:27:40;0.60;;;0.60;;
41139;SDS011;26881;48.784;9.192;2022-11-20T20:33:02;1.50;;;0.83;;
41139;SDS011;26881;48.784;9.192;2022-11-20T20:38:24;0.50;;;0.50;;
41139;SDS011;26881;48.784;9.192;2022-11-20T20:43:46;2.17;;;0.90;;
41139;SDS011;26881;48.784;9.192;2022-11-20T20:49:26;1.53;;;1.03;;
41139;SDS011;26881;48.784;9.192;2022-11-20T20:54:48;0.70;;;0.70;;
41139;SDS011;26881;48.784;9.192;2022-11-20T21:00:10;0.90;;;0.90;;
41139;SDS011;26881;48.784;9.192;2022-11-20T21:05:32;0.82;;;0.73;;
41139;SDS011;26881;48.784;9.192;2022-11-20T21:10:54;1.35;;;1.17;;
41139;SDS011;26881;48.784;9.192;2022-11-20T21:16:21;0.70;;;0.70;;
41139;SDS011;26881;48.784;9.192;2022-11-20T21:21:42;1.00;;;0.70;;
41139;SDS011;26881;48.784;9.192;2022-11-20T21:27:19;0.87;;;0.80;;
41139;SDS011;26881;48.784;9.192;2022-11-20T21:32:41;1.80;;;0.98;;
41139;SDS011;26881;48.784;9.192;2022-11-20T21:38:02;0.82;;;0.65;;
41139;SDS011;26881;48.784;9.192;2022-11-20T21:43:24;1.50;;;0.77;;
41139;SDS011;26881;48.784;9.192;2022-11-20T21:48:46;0.60;;;0.60;;
41139;SDS011;26881;48.784;9.192;2022-11-20T21:54:08;0.93;;;0.83;;
41139;SDS011;26881;48.784;9.192;2022-11-20T21:59:30;0.77;;;0.77;;
41139;SDS011;26881;48.784;9.192;2022-11-20T22:04:52;1.37;;;0.90;;
41139;SDS011;26881;48.784;9.192;2022-11-20T22:10:14;2.73;;;0.60;;
41139;SDS011;26881;48.784;9.192;2022-11-20T22:15:39;0.50;;;0.50;;
41139;SDS011;26881;48.784;9.192;2022-11-20T22:21:21;0.70;;;0.60;;
41139;SDS011;26881;48.784;9.192;2022-11-20T22:26:44;1.93;;;0.80;;
41139;SDS011;26881;48.784;9.192;2022-11-20T22:32:06;1.90;;;0.93;;
41139;SDS011;26881;48.784;9.192;2022-11-20T22:37:28;2.13;;;0.80;;
41139;SDS011;26881;48.784;9.192;2022-11-20T22:42:50;1.70;;;0.60;;
41139;SDS011;26881;48.784;9.192;2022-11-20T22:48:12;1.23;;;0.70;;
41139;SDS011;26881;48.784;9.192;2022-11-20T22:53:33;0.90;;;0.70;;
41139;SDS011;26881;48.784;9.192;2022-11-20T22:58:56;2.00;;;0.70;;
41139;SDS011;26881;48.784;9.192;2022-11-20T23:04:17;0.70;;;0.70;;
41139;SDS011;26881;48.784;9.192;2022-11-20T23:09:39;1.53;;;0.70;;
41139;SDS011;26881;48.784;9.192;2022-11-20T23:15:01;1.85;;;0.80;;
41139;SDS011;26881;48.784;9.192;2022-11-20T23:20:23;0.50;;;0.50;;
41139;SDS011;26881;48.784;9.192;2022-11-20T23:25:44;0.90;;;0.50;;
41139;SDS011;26881;48.784;9.192;2022-11-20T23:31:07;1.50;;;0.60;;
41139;SDS011;26881;48.784;9.192;2022-11-20T23:36:29;0.80;;;0.60;;
41139;SDS011;26881;48.784;9.192;2022-11-20T23:41:51;1.20;;;0.60;;
41139;SDS011;26881;48.784;9.192;2022-11-20T23:47:12;1.23;;;0.60;;
41139;SDS011;26881;48.784;9.192;2022-11-20T23:52:34;0.65;;;0.57;;
41139;SDS011;26881;48.784;9.192;2022-11-20T23:57:56;1.60;;;0.67;;
